createdAt,value
2018-09-01T00:00:02.617Z,0.40
2018-09-01T00:02:29.533Z,1.40
2018-09-01T00:04:56.580Z,0.80
2018-09-01T00:07:23.053Z,1.80
2018-09-01T00:09:49.561Z,3.00
2018-09-01T00:12:16.054Z,1.00
2018-09-01T00:14:42.524Z,1.00
2018-09-01T00:17:08.982Z,0.00
2018-09-01T00:19:36.487Z,1.80
2018-09-01T00:22:04.652Z,2.60
2018-09-01T00:24:31.420Z,1.00
2018-09-01T00:26:58.015Z,3.00
2018-09-01T00:29:25.017Z,1.40
2018-09-01T00:31:52.653Z,3.00
2018-09-01T00:34:19.154Z,3.00
2018-09-01T00:36:46.227Z,3.60
2018-09-01T00:39:14.134Z,3.00
2018-09-01T00:41:40.621Z,1.00
2018-09-01T00:44:07.081Z,3.40
2018-09-01T00:46:33.945Z,3.00
2018-09-01T00:49:00.412Z,2.20
2018-09-01T00:51:28.137Z,4.00
2018-09-01T00:53:55.077Z,1.00
2018-09-01T00:56:21.639Z,3.80
2018-09-01T00:58:48.141Z,1.40
2018-09-01T01:01:14.595Z,3.40
2018-09-01T01:03:41.417Z,3.00
2018-09-01T01:06:07.904Z,1.00
2018-09-01T01:08:34.385Z,3.00
2018-09-01T01:11:01.682Z,2.20
2018-09-01T01:13:28.171Z,1.00
2018-09-01T01:15:55.557Z,3.00
2018-09-01T01:18:22.301Z,1.00
2018-09-01T01:20:49.092Z,1.00
2018-09-01T01:23:15.610Z,1.00
2018-09-01T01:25:42.096Z,1.00
2018-09-01T01:28:08.986Z,1.00
2018-09-01T01:30:35.436Z,0.40
2018-09-01T01:33:01.918Z,1.00
2018-09-01T01:35:28.401Z,1.00
2018-09-01T01:37:55.369Z,1.00
2018-09-01T01:40:21.858Z,1.00
2018-09-01T01:42:48.342Z,1.80
2018-09-01T01:45:14.844Z,1.40
2018-09-01T01:47:41.734Z,2.60
2018-09-01T01:50:08.198Z,0.00
2018-09-01T01:52:34.681Z,1.00
2018-09-01T01:55:01.210Z,0.80
2018-09-01T01:57:28.041Z,4.00
2018-09-01T01:59:54.516Z,0.00
2018-09-01T02:02:21.001Z,3.20
2018-09-01T02:04:48.214Z,3.60
2018-09-01T02:07:15.435Z,3.20
2018-09-01T02:09:42.046Z,3.00
2018-09-01T02:12:08.712Z,1.00
2018-09-01T02:14:35.727Z,2.60
2018-09-01T02:17:02.323Z,1.00
2018-09-01T02:19:28.793Z,4.00
2018-09-01T02:21:55.237Z,0.60
2018-09-01T02:24:22.156Z,3.40
2018-09-01T02:26:48.645Z,4.20
2018-09-01T02:29:15.146Z,0.40
2018-09-01T02:31:41.618Z,3.80
2018-09-01T02:34:08.550Z,3.00
2018-09-01T02:36:35.054Z,3.60
2018-09-01T02:39:01.513Z,3.00
2018-09-01T02:41:28.013Z,0.00
2018-09-01T02:43:54.472Z,1.00
2018-09-01T02:46:22.593Z,4.80
2018-09-01T02:48:49.085Z,3.60
2018-09-01T02:51:16.010Z,3.00
2018-09-01T02:53:42.507Z,1.00
2018-09-01T02:56:09.009Z,1.80
2018-09-01T02:58:35.507Z,3.00
2018-09-01T03:01:02.344Z,6.00
2018-09-01T03:03:28.853Z,1.00
2018-09-01T03:05:55.359Z,3.40
2018-09-01T03:08:21.881Z,0.80
2018-09-01T03:10:48.684Z,3.40
2018-09-01T03:13:15.172Z,4.00
2018-09-01T03:15:41.665Z,1.00
2018-09-01T03:18:08.155Z,1.60
2018-09-01T03:20:35.020Z,2.60
2018-09-01T03:23:01.461Z,2.60
2018-09-01T03:25:27.969Z,4.00
2018-09-01T03:27:54.429Z,3.00
2018-09-01T03:30:21.419Z,3.40
2018-09-01T03:32:47.876Z,1.00
2018-09-01T03:35:14.370Z,6.80
2018-09-01T03:37:40.856Z,1.00
2018-09-01T03:40:07.699Z,0.40
2018-09-01T03:42:34.149Z,2.20
2018-09-01T03:45:00.626Z,1.00
2018-09-01T03:47:27.410Z,7.80
2018-09-01T03:49:53.899Z,4.00
2018-09-01T03:52:20.350Z,4.00
2018-09-01T03:54:46.841Z,3.40
2018-09-01T03:57:13.790Z,4.00
2018-09-01T03:59:40.348Z,8.20
2018-09-01T04:02:06.874Z,4.00
2018-09-01T04:04:33.370Z,3.20
2018-09-01T04:07:00.115Z,6.00
2018-09-01T04:09:26.606Z,4.00
2018-09-01T04:11:53.106Z,3.00
2018-09-01T04:14:19.874Z,4.80
2018-09-01T04:16:46.332Z,4.80
2018-09-01T04:19:12.844Z,4.00
2018-09-01T04:21:39.338Z,6.40
2018-09-01T04:24:06.126Z,8.60
2018-09-01T04:26:32.609Z,5.20
2018-09-01T04:28:59.139Z,6.00
2018-09-01T04:31:25.886Z,6.20
2018-09-01T04:33:52.380Z,6.00
2018-09-01T04:36:18.850Z,6.60
2018-09-01T04:38:45.648Z,4.80
2018-09-01T04:41:12.162Z,4.60
2018-09-01T04:43:38.641Z,7.60
2018-09-01T04:46:05.149Z,6.00
2018-09-01T04:48:31.910Z,8.00
2018-09-01T04:50:58.374Z,7.20
2018-09-01T04:53:24.836Z,6.00
2018-09-01T04:55:51.330Z,6.40
2018-09-01T04:58:18.119Z,5.20
2018-09-01T05:00:44.669Z,5.60
2018-09-01T05:03:11.410Z,6.00
2018-09-01T05:05:38.258Z,4.40
2018-09-01T05:08:04.766Z,9.60
2018-09-01T05:10:31.399Z,6.20
2018-09-01T05:12:57.898Z,4.80
2018-09-01T05:15:24.362Z,5.40
2018-09-01T05:17:50.851Z,5.20
2018-09-01T05:20:17.607Z,3.80
2018-09-01T05:22:44.053Z,3.00
2018-09-01T05:25:10.518Z,3.40
2018-09-01T05:27:37.295Z,3.80
2018-09-01T05:30:03.793Z,4.60
2018-09-01T05:32:30.286Z,4.80
2018-09-01T05:34:57.061Z,4.40
2018-09-01T05:37:23.559Z,2.60
2018-09-01T05:39:50.030Z,3.00
2018-09-01T05:42:17.530Z,3.00
2018-09-01T05:44:43.985Z,4.00
2018-09-01T05:47:10.448Z,6.00
2018-09-01T05:49:37.224Z,3.20
2018-09-01T05:52:06.696Z,6.80
2018-09-01T05:54:33.176Z,4.00
2018-09-01T05:57:00.224Z,4.00
2018-09-01T05:59:26.838Z,4.00
2018-09-01T06:01:53.286Z,4.40
2018-09-01T06:04:20.235Z,3.00
2018-09-01T06:06:46.874Z,6.00
2018-09-01T06:09:13.513Z,4.00
2018-09-01T06:11:41.334Z,4.00
2018-09-01T06:14:07.837Z,2.60
2018-09-01T06:16:34.325Z,5.40
2018-09-01T06:19:01.117Z,5.60
2018-09-01T06:21:27.618Z,7.60
2018-09-01T06:23:54.172Z,4.60
2018-09-01T06:26:21.130Z,5.60
2018-09-01T06:28:47.585Z,6.80
2018-09-01T06:31:14.074Z,4.80
2018-09-01T06:33:40.870Z,6.00
2018-09-01T06:36:07.644Z,9.40
2018-09-01T06:38:34.101Z,7.20
2018-09-01T06:41:00.875Z,5.40
2018-09-01T06:43:27.377Z,7.40
2018-09-01T06:45:54.918Z,10.20
2018-09-01T06:48:21.665Z,5.80
2018-09-01T06:50:48.158Z,6.00
2018-09-01T06:53:14.662Z,10.40
2018-09-01T06:55:41.542Z,11.20
2018-09-01T06:58:08.050Z,6.00
2018-09-01T07:00:34.611Z,9.40
2018-09-01T07:03:01.415Z,7.00
2018-09-01T07:05:27.914Z,8.40
2018-09-01T07:07:54.405Z,3.20
2018-09-01T07:10:21.253Z,5.20
2018-09-01T07:12:48.375Z,8.20
2018-09-01T07:15:15.525Z,8.40
2018-09-01T07:17:42.532Z,12.20
2018-09-01T07:20:09.007Z,8.60
2018-09-01T07:22:35.518Z,10.20
2018-09-01T07:25:02.623Z,7.80
2018-09-01T07:27:32.407Z,6.40
2018-09-01T07:29:59.887Z,4.00
2018-09-01T07:32:27.763Z,6.80
2018-09-01T07:34:54.257Z,6.00
2018-09-01T07:37:21.721Z,3.00
2018-09-01T07:39:48.482Z,3.00
2018-09-01T07:42:14.996Z,4.00
2018-09-01T07:44:41.486Z,3.00
2018-09-01T07:47:11.141Z,1.00
2018-09-01T07:49:39.411Z,6.00
2018-09-01T07:52:07.350Z,3.00
2018-09-01T07:54:34.209Z,3.00
2018-09-01T07:57:00.816Z,0.60
2018-09-01T07:59:27.298Z,0.20
2018-09-01T08:01:54.067Z,0.60
2018-09-01T08:04:20.536Z,1.00
2018-09-01T08:06:47.994Z,1.00
2018-09-01T08:09:14.749Z,0.00
2018-09-01T08:11:41.874Z,0.00
2018-09-01T08:14:08.409Z,0.00
2018-09-01T08:16:35.166Z,0.00
2018-09-01T08:19:01.624Z,0.00
2018-09-01T08:21:28.112Z,0.00
2018-09-01T08:23:54.909Z,0.00
2018-09-01T08:26:21.431Z,1.40
2018-09-01T08:28:47.892Z,3.20
2018-09-01T08:31:14.643Z,3.00
2018-09-01T08:33:41.304Z,1.80
2018-09-01T08:36:07.609Z,1.00
2018-09-01T08:38:34.609Z,0.60
2018-09-01T08:41:03.502Z,3.60
2018-09-01T08:43:29.977Z,3.00
2018-09-01T08:45:57.356Z,3.00
2018-09-01T08:48:24.474Z,1.00
2018-09-01T08:50:52.086Z,0.00
2018-09-01T08:53:20.264Z,1.00
2018-09-01T08:55:47.333Z,0.20
2018-09-01T08:58:13.777Z,1.00
2018-09-01T09:00:40.574Z,3.00
2018-09-01T09:03:08.676Z,3.00
2018-09-01T09:05:35.708Z,3.00
2018-09-01T09:08:02.450Z,2.60
2018-09-01T09:10:28.946Z,1.00
2018-09-01T09:12:55.409Z,1.00
2018-09-01T09:15:22.177Z,1.00
2018-09-01T09:17:48.654Z,0.80
2018-09-01T09:20:15.368Z,0.00
2018-09-01T09:22:43.278Z,3.00
2018-09-01T09:25:09.753Z,0.00
2018-09-01T09:27:36.658Z,1.00
2018-09-01T09:30:03.406Z,0.00
2018-09-01T09:32:30.001Z,0.00
2018-09-01T09:34:56.492Z,1.00
2018-09-01T09:37:23.237Z,1.00
2018-09-01T09:39:49.925Z,1.00
2018-09-01T09:42:16.630Z,0.80
2018-09-01T09:44:44.234Z,0.20
2018-09-01T09:47:11.354Z,1.00
2018-09-01T09:49:38.393Z,0.40
2018-09-01T09:52:04.884Z,0.00
2018-09-01T09:54:31.558Z,0.00
2018-09-01T09:56:58.309Z,1.00
2018-09-01T09:59:24.793Z,2.60
2018-09-01T10:01:51.335Z,0.00
2018-09-01T10:04:19.264Z,1.00
2018-09-01T10:06:45.727Z,0.60
2018-09-01T10:09:12.305Z,1.00
2018-09-01T10:11:39.269Z,1.00
2018-09-01T10:14:05.897Z,1.00
2018-09-01T10:16:33.520Z,1.00
2018-09-01T10:19:00.319Z,0.00
2018-09-01T10:21:26.890Z,0.00
2018-09-01T10:23:53.387Z,1.00
2018-09-01T10:26:21.148Z,0.80
2018-09-01T10:28:47.638Z,0.00
2018-09-01T10:31:14.172Z,0.00
2018-09-01T10:33:41.137Z,0.40
2018-09-01T10:36:07.675Z,0.00
2018-09-01T10:38:34.733Z,0.20
2018-09-01T10:41:03.604Z,0.00
2018-09-01T10:43:35.905Z,0.00
2018-09-01T10:46:02.458Z,0.00
2018-09-01T10:51:03.763Z,1.00
2018-09-01T10:53:30.221Z,0.00
2018-09-01T10:55:56.969Z,1.00
2018-09-01T10:58:23.449Z,1.00
2018-09-01T11:00:49.933Z,0.80
2018-09-01T11:03:16.769Z,0.00
2018-09-01T11:05:43.350Z,1.00
2018-09-01T11:08:10.496Z,1.00
2018-09-01T11:10:37.407Z,0.40
2018-09-01T11:13:03.900Z,1.00
2018-09-01T11:15:31.646Z,0.00
2018-09-01T11:17:58.927Z,0.80
2018-09-01T11:20:25.508Z,1.00
2018-09-01T11:22:53.871Z,1.00
2018-09-01T11:27:53.807Z,1.00
2018-09-01T11:30:20.292Z,1.00
2018-09-01T11:32:47.562Z,3.20
2018-09-01T11:35:14.249Z,1.40
2018-09-01T11:37:40.706Z,3.40
2018-09-01T11:40:07.796Z,3.00
2018-09-01T11:45:04.725Z,1.00
2018-09-01T11:47:32.457Z,1.20
2018-09-01T11:49:58.942Z,1.80
2018-09-01T11:52:25.436Z,2.20
2018-09-01T11:54:52.210Z,0.60
2018-09-01T11:57:18.845Z,3.00
2018-09-01T11:59:46.358Z,1.00
2018-09-01T12:02:13.617Z,0.60
2018-09-01T12:04:40.444Z,0.20
2018-09-01T12:07:06.934Z,0.00
2018-09-01T12:09:33.829Z,0.40
2018-09-01T12:12:01.377Z,0.00
2018-09-01T12:14:28.021Z,0.00
2018-09-01T12:17:00.579Z,1.80
2018-09-01T12:19:27.176Z,1.00
2018-09-01T12:21:53.779Z,0.00
2018-09-01T12:24:20.670Z,0.00
2018-09-01T12:26:50.573Z,1.00
2018-09-01T12:29:17.858Z,1.00
2018-09-01T12:31:44.621Z,0.00
2018-09-01T12:34:11.314Z,0.40
2018-09-01T12:36:37.806Z,0.40
2018-09-01T12:39:04.726Z,1.00
2018-09-01T12:41:31.171Z,1.80
2018-09-01T12:43:58.241Z,0.20
2018-09-01T12:46:25.014Z,1.00
2018-09-01T12:48:51.465Z,0.20
2018-09-01T12:51:17.954Z,0.00
2018-09-01T12:53:44.708Z,1.80
2018-09-01T12:56:11.322Z,1.00
2018-09-01T12:58:38.661Z,1.00
2018-09-01T13:01:05.395Z,1.00
2018-09-01T13:03:31.891Z,1.00
2018-09-01T13:13:45.273Z,1.00
2018-09-01T13:16:11.795Z,1.00
2018-09-01T13:18:39.952Z,1.00
2018-09-01T13:25:04.374Z,1.00
2018-09-01T13:34:56.737Z,1.00
2018-09-01T13:54:11.086Z,2.20
2018-09-01T14:02:11.883Z,0.20
2018-09-01T14:04:39.136Z,1.00
2018-09-01T14:11:08.254Z,1.00
2018-09-01T14:13:34.782Z,0.60
2018-09-01T14:16:01.282Z,0.80
2018-09-01T14:46:45.395Z,1.00
2018-09-01T14:49:11.825Z,2.00
2018-09-01T14:51:38.281Z,1.00
2018-09-01T14:55:50.787Z,1.00
2018-09-01T15:33:19.246Z,1.00
2018-09-01T15:47:53.748Z,1.00
2018-09-01T16:00:36.262Z,1.00
2018-09-01T18:13:32.469Z,3.00
2018-09-01T19:34:52.094Z,3.20
2018-09-01T19:42:48.261Z,5.00
2018-09-01T19:53:36.486Z,1.00
2018-09-01T20:18:49.389Z,1.80
2018-09-01T20:25:16.317Z,3.00
2018-09-01T20:27:42.896Z,3.00
2018-09-01T20:49:33.275Z,3.20
2018-09-01T20:51:59.922Z,3.80
2018-09-01T21:58:49.420Z,6.00
2018-09-01T22:09:11.502Z,5.20
2018-09-01T22:21:51.645Z,6.40
2018-09-01T22:39:46.314Z,5.20
2018-09-01T22:51:52.834Z,7.00
2018-09-01T22:54:19.805Z,5.20
2018-09-01T22:56:46.317Z,4.40
2018-09-01T22:59:14.178Z,7.00
2018-09-01T23:01:41.405Z,8.20
2018-09-01T23:04:08.685Z,7.20
2018-09-01T23:06:35.133Z,9.00
2018-09-01T23:09:03.153Z,12.40
2018-09-01T23:11:29.637Z,6.40
2018-09-01T23:13:56.427Z,6.80
2018-09-01T23:16:52.075Z,9.60
2018-09-01T23:23:53.451Z,7.00
2018-09-01T23:42:40.149Z,9.60
2018-09-01T23:56:47.316Z,6.60
2018-09-01T23:59:13.801Z,6.60
